createdAt,value
2022-10-03T00:02:20.084Z,100617.75
2022-10-03T00:05:22.576Z,100627.78
2022-10-03T00:08:06.249Z,100629.00
2022-10-03T00:11:38.098Z,100633.53
2022-10-03T00:14:27.006Z,100641.75
2022-10-03T00:17:12.402Z,100635.72
2022-10-03T00:19:52.119Z,100638.59
2022-10-03T00:22:52.877Z,100643.31
2022-10-03T00:26:28.399Z,100647.00
2022-10-03T00:29:18.935Z,100645.34
2022-10-03T00:32:05.826Z,100649.00
2022-10-03T00:34:58.891Z,100655.38
2022-10-03T00:38:03.835Z,100647.34
2022-10-03T00:40:58.241Z,100657.22
2022-10-03T00:44:12.734Z,100666.09
2022-10-03T00:46:55.669Z,100661.56
2022-10-03T00:49:57.673Z,100662.75
2022-10-03T00:52:51.557Z,100660.09
2022-10-03T00:55:50.574Z,100654.75
2022-10-03T00:58:48.695Z,100661.09
2022-10-03T01:01:27.699Z,100662.13
2022-10-03T01:04:21.804Z,100670.31
2022-10-03T01:07:45.195Z,100665.34
2022-10-03T01:10:22.802Z,100662.66
2022-10-03T01:13:28.882Z,100664.84
2022-10-03T01:16:10.759Z,100670.22
2022-10-03T01:19:02.060Z,100668.91
2022-10-03T01:21:57.937Z,100666.22
2022-10-03T01:25:19.657Z,100671.75
2022-10-03T01:28:20.753Z,100669.25
2022-10-03T01:30:56.646Z,100669.44
2022-10-03T01:33:48.232Z,100677.63
2022-10-03T01:36:49.794Z,100680.66
2022-10-03T01:39:50.823Z,100689.69
2022-10-03T01:42:44.208Z,100691.72
2022-10-03T01:45:52.822Z,100691.09
2022-10-03T01:48:45.411Z,100688.75
2022-10-03T01:51:56.574Z,100702.13
2022-10-03T01:54:35.863Z,100702.31
2022-10-03T01:57:30.102Z,100699.00
2022-10-03T02:00:17.633Z,100700.84
2022-10-03T02:03:17.165Z,100707.84
2022-10-03T02:06:32.760Z,100703.53
2022-10-03T02:09:16.546Z,100701.84
2022-10-03T02:12:13.721Z,100705.53
2022-10-03T02:14:54.715Z,100710.03
2022-10-03T02:17:27.105Z,100710.03
2022-10-03T02:20:36.229Z,100707.56
2022-10-03T02:23:33.866Z,100716.59
2022-10-03T02:26:21.028Z,100710.41
2022-10-03T02:29:21.840Z,100710.41
2022-10-03T02:32:23.929Z,100707.91
2022-10-03T02:35:14.961Z,100700.06
2022-10-03T02:38:09.990Z,100705.59
2022-10-03T02:41:32.573Z,100701.25
2022-10-03T02:44:40.318Z,100703.28
2022-10-03T02:47:34.573Z,100707.97
2022-10-03T02:50:52.593Z,100710.00
2022-10-03T02:54:12.778Z,100697.97
2022-10-03T02:56:56.438Z,100702.66
2022-10-03T02:59:48.885Z,100696.00
2022-10-03T03:02:48.299Z,100691.84
2022-10-03T03:06:03.671Z,100690.38
2022-10-03T03:09:08.488Z,100692.56
2022-10-03T03:12:06.296Z,100695.41
2022-10-03T03:15:20.568Z,100694.78
2022-10-03T03:18:11.195Z,100694.78
2022-10-03T03:21:15.590Z,100697.44
2022-10-03T03:24:07.035Z,100703.63
2022-10-03T03:27:22.228Z,100707.31
2022-10-03T03:30:19.290Z,100709.13
2022-10-03T03:33:33.120Z,100711.16
2022-10-03T03:36:39.966Z,100714.19
2022-10-03T03:39:24.835Z,100725.22
2022-10-03T03:42:38.172Z,100729.25
2022-10-03T03:45:16.805Z,100724.25
2022-10-03T03:48:01.439Z,100728.28
2022-10-03T03:50:58.072Z,100729.63
2022-10-03T03:54:09.780Z,100734.66
2022-10-03T03:56:42.469Z,100726.00
2022-10-03T03:59:39.030Z,100722.00
2022-10-03T04:02:29.309Z,100725.03
2022-10-03T04:05:11.901Z,100724.53
2022-10-03T04:08:34.715Z,100728.72
2022-10-03T04:11:13.729Z,100722.72
2022-10-03T04:14:27.944Z,100726.75
2022-10-03T04:17:26.335Z,100736.56
2022-10-03T04:20:21.127Z,100738.97
2022-10-03T04:22:57.949Z,100734.13
2022-10-03T04:25:34.770Z,100737.97
2022-10-03T04:28:26.642Z,100734.63
2022-10-03T04:31:24.499Z,100741.50
2022-10-03T04:34:15.744Z,100745.50
2022-10-03T04:37:28.623Z,100761.84
2022-10-03T04:40:49.249Z,100757.88
2022-10-03T04:43:44.936Z,100761.03
2022-10-03T04:46:46.735Z,100762.22
2022-10-03T04:49:30.854Z,100761.53
2022-10-03T04:52:21.458Z,100759.84
2022-10-03T04:55:10.047Z,100762.50
2022-10-03T04:58:26.707Z,100748.50
2022-10-03T05:01:22.362Z,100753.66
2022-10-03T05:04:26.134Z,100749.16
2022-10-03T05:07:13.473Z,100755.50
2022-10-03T05:09:54.810Z,100753.66
2022-10-03T05:13:05.200Z,100759.00
2022-10-03T05:16:02.196Z,100759.84
2022-10-03T05:19:06.028Z,100762.50
2022-10-03T05:21:42.686Z,100771.34
2022-10-03T05:24:37.091Z,100774.00
2022-10-03T05:27:24.872Z,100772.22
2022-10-03T05:30:39.404Z,100782.03
2022-10-03T05:33:20.248Z,100785.56
2022-10-03T05:36:23.606Z,100788.22
2022-10-03T05:39:23.642Z,100796.22
2022-10-03T05:42:35.098Z,100794.44
2022-10-03T05:45:08.861Z,100789.91
2022-10-03T05:48:23.397Z,100794.53
2022-10-03T05:51:21.874Z,100796.22
2022-10-03T05:54:31.965Z,100799.88
2022-10-03T05:57:26.024Z,100802.53
2022-10-03T06:00:21.610Z,100804.25
2022-10-03T06:03:10.429Z,100806.91
2022-10-03T06:06:26.387Z,100811.28
2022-10-03T06:09:35.636Z,100815.59
2022-10-03T06:12:38.155Z,100824.44
2022-10-03T06:15:21.368Z,100831.44
2022-10-03T06:18:01.132Z,100825.94
2022-10-03T06:21:16.615Z,100839.28
2022-10-03T06:24:08.441Z,100839.28
2022-10-03T06:27:17.243Z,100851.63
2022-10-03T06:30:22.058Z,100850.47
2022-10-03T06:33:13.861Z,100853.81
2022-10-03T06:36:18.343Z,100850.97
2022-10-03T06:39:54.910Z,100860.50
2022-10-03T06:42:42.762Z,100860.31
2022-10-03T06:45:39.847Z,100864.47
2022-10-03T06:49:07.775Z,100862.50
2022-10-03T06:52:41.811Z,100864.81
2022-10-03T06:55:34.868Z,100866.47
2022-10-03T06:58:23.350Z,100864.31
2022-10-03T07:01:12.097Z,100866.66
2022-10-03T07:04:06.805Z,100866.31
2022-10-03T07:07:14.502Z,100866.81
2022-10-03T07:10:46.104Z,100865.66
2022-10-03T07:13:44.314Z,100870.66
2022-10-03T07:17:04.823Z,100875.81
2022-10-03T07:20:21.983Z,100876.31
2022-10-03T07:23:33.166Z,100877.63
2022-10-03T07:26:34.295Z,100870.97
2022-10-03T07:29:49.012Z,100873.44
2022-10-03T07:33:07.011Z,100873.59
2022-10-03T07:36:33.446Z,100879.47
2022-10-03T07:39:34.252Z,100892.16
2022-10-03T07:42:44.706Z,100892.13
2022-10-03T07:45:45.290Z,100898.94
2022-10-03T07:48:43.566Z,100892.56
2022-10-03T07:51:24.364Z,100896.88
2022-10-03T07:54:19.228Z,100895.84
2022-10-03T07:57:31.998Z,100913.84
2022-10-03T08:00:22.968Z,100905.13
2022-10-03T08:03:25.265Z,100909.16
2022-10-03T08:06:24.564Z,100903.44
2022-10-03T08:09:24.785Z,100903.28
2022-10-03T08:12:01.014Z,100904.13
2022-10-03T08:14:58.181Z,100902.47
2022-10-03T08:17:43.822Z,100909.47
2022-10-03T08:20:32.151Z,100900.75
2022-10-03T08:23:25.783Z,100906.13
2022-10-03T08:26:22.880Z,100910.63
2022-10-03T08:29:29.631Z,100904.44
2022-10-03T08:32:39.238Z,100910.63
2022-10-03T08:36:06.771Z,100909.94
2022-10-03T08:38:57.276Z,100912.59
2022-10-03T08:42:08.427Z,100910.09
2022-10-03T08:45:02.746Z,100913.34
2022-10-03T08:48:10.769Z,100899.28
2022-10-03T08:50:50.766Z,100907.78
2022-10-03T08:53:50.672Z,100901.59
2022-10-03T08:57:00.271Z,100906.09
2022-10-03T09:00:04.366Z,100901.59
2022-10-03T09:06:28.099Z,100902.78
2022-10-03T09:09:06.683Z,100897.25
2022-10-03T09:11:42.046Z,100900.41
2022-10-03T09:14:36.354Z,100903.22
2022-10-03T09:17:15.675Z,100902.50
2022-10-03T09:19:56.900Z,100906.31
2022-10-03T09:23:02.183Z,100905.59
2022-10-03T09:25:47.497Z,100903.88
2022-10-03T09:29:07.667Z,100905.81
2022-10-03T09:32:28.424Z,100913.97
2022-10-03T09:35:48.595Z,100910.94
2022-10-03T09:39:01.171Z,100912.22
2022-10-03T09:41:50.472Z,100913.94
2022-10-03T09:44:41.955Z,100914.75
2022-10-03T09:47:36.083Z,100913.75
2022-10-03T09:50:54.022Z,100910.88
2022-10-03T09:54:16.548Z,100914.03
2022-10-03T09:57:05.619Z,100912.84
2022-10-03T09:59:52.977Z,100907.28
2022-10-03T10:02:44.680Z,100914.78
2022-10-03T10:05:36.692Z,100904.53
2022-10-03T10:08:52.674Z,100906.03
2022-10-03T10:11:37.643Z,100907.50
2022-10-03T10:14:47.715Z,100915.00
2022-10-03T10:17:44.968Z,100903.91
2022-10-03T10:21:03.095Z,100913.66
2022-10-03T10:24:14.890Z,100912.88
2022-10-03T10:27:00.087Z,100905.41
2022-10-03T10:29:55.944Z,100909.16
2022-10-03T10:32:56.910Z,100907.88
2022-10-03T10:36:08.435Z,100905.72
2022-10-03T10:39:14.025Z,100900.34
2022-10-03T10:42:25.490Z,100893.88
2022-10-03T10:45:49.283Z,100896.81
2022-10-03T10:49:13.255Z,100898.31
2022-10-03T10:52:04.645Z,100897.56
2022-10-03T10:54:56.946Z,100897.16
2022-10-03T10:58:01.798Z,100892.88
2022-10-03T11:01:07.469Z,100896.22
2022-10-03T11:04:25.280Z,100897.03
2022-10-03T11:07:19.641Z,100895.38
2022-10-03T11:10:01.652Z,100892.88
2022-10-03T11:13:08.535Z,100893.44
2022-10-03T11:16:16.226Z,100891.50
2022-10-03T11:19:13.843Z,100892.09
2022-10-03T11:22:18.114Z,100888.19
2022-10-03T11:25:13.050Z,100892.38
2022-10-03T11:28:32.567Z,100884.63
2022-10-03T11:31:28.001Z,100880.25
2022-10-03T11:34:19.020Z,100878.66
2022-10-03T11:37:05.142Z,100880.38
2022-10-03T11:39:46.070Z,100883.66
2022-10-03T11:42:59.443Z,100877.47
2022-10-03T11:45:58.145Z,100871.00
2022-10-03T11:48:40.458Z,100877.00
2022-10-03T11:51:37.432Z,100881.53
2022-10-03T11:54:37.439Z,100871.63
2022-10-03T11:57:28.294Z,100875.34
2022-10-03T12:00:14.123Z,100878.38
2022-10-03T12:03:04.456Z,100865.34
2022-10-03T12:06:15.402Z,100859.78
2022-10-03T12:09:04.005Z,100855.06
2022-10-03T12:11:41.728Z,100856.78
2022-10-03T12:14:30.426Z,100862.47
2022-10-03T12:17:01.290Z,100858.63
2022-10-03T12:19:33.714Z,100860.78
2022-10-03T12:22:33.025Z,100855.50
2022-10-03T12:25:24.510Z,100846.09
2022-10-03T12:28:21.238Z,100843.69
2022-10-03T12:30:56.934Z,100843.53
2022-10-03T12:33:52.616Z,100839.91
2022-10-03T12:36:57.862Z,100832.69
2022-10-03T12:40:05.617Z,100834.84
2022-10-03T12:42:49.249Z,100827.22
2022-10-03T12:45:30.119Z,100824.75
2022-10-03T12:48:11.954Z,100821.09
2022-10-03T12:50:59.447Z,100818.56
2022-10-03T12:54:15.840Z,100816.34
2022-10-03T12:56:50.095Z,100826.31
2022-10-03T12:59:44.859Z,100822.38
2022-10-03T13:02:35.565Z,100819.09
2022-10-03T13:05:36.157Z,100822.66
2022-10-03T13:08:28.095Z,100819.16
2022-10-03T13:11:25.832Z,100816.44
2022-10-03T13:14:26.832Z,100813.56
2022-10-03T13:17:13.069Z,100808.78
2022-10-03T13:19:59.692Z,100813.78
2022-10-03T13:22:56.097Z,100808.59
2022-10-03T13:25:38.990Z,100802.81
2022-10-03T13:28:10.923Z,100807.38
2022-10-03T13:30:57.424Z,100809.63
2022-10-03T13:33:29.672Z,100807.38
2022-10-03T13:36:44.703Z,100802.16
2022-10-03T13:39:35.510Z,100800.94
2022-10-03T13:42:28.720Z,100810.25
2022-10-03T13:45:04.094Z,100804.38
2022-10-03T13:47:59.065Z,100795.69
2022-10-03T13:51:02.287Z,100806.03
2022-10-03T13:54:11.643Z,100800.63
2022-10-03T13:57:15.376Z,100804.97
2022-10-03T14:00:15.033Z,100801.25
2022-10-03T14:02:59.777Z,100800.44
2022-10-03T14:06:30.257Z,100794.88
2022-10-03T14:09:49.592Z,100795.69
2022-10-03T14:12:55.864Z,100795.66
2022-10-03T14:15:58.205Z,100787.38
2022-10-03T14:19:02.854Z,100791.47
2022-10-03T14:22:14.863Z,100792.31
2022-10-03T14:25:18.406Z,100784.47
2022-10-03T14:28:08.207Z,100780.34
2022-10-03T14:31:16.598Z,100777.06
2022-10-03T14:34:17.753Z,100780.41
2022-10-03T14:37:02.848Z,100780.19
2022-10-03T14:39:43.114Z,100772.13
2022-10-03T14:43:14.490Z,100773.78
2022-10-03T14:45:48.238Z,100777.94
2022-10-03T14:48:24.729Z,100769.00
2022-10-03T14:51:04.259Z,100770.03
2022-10-03T14:53:31.462Z,100777.94
2022-10-03T14:56:09.759Z,100777.94
2022-10-03T14:58:45.846Z,100781.22
2022-10-03T15:01:23.675Z,100778.75
2022-10-03T15:04:15.568Z,100778.31
2022-10-03T15:06:45.410Z,100769.97
2022-10-03T15:09:18.257Z,100768.31
2022-10-03T15:11:52.910Z,100776.63
2022-10-03T15:14:24.275Z,100773.72
2022-10-03T15:16:56.059Z,100766.25
2022-10-03T15:19:44.046Z,100762.56
2022-10-03T15:22:32.729Z,100772.06
2022-10-03T15:25:14.467Z,100771.25
2022-10-03T15:27:45.170Z,100771.25
2022-10-03T15:30:33.496Z,100770.25
2022-10-03T15:33:31.226Z,100769.97
2022-10-03T15:36:22.710Z,100757.97
2022-10-03T15:38:54.916Z,100769.56
2022-10-03T15:41:48.178Z,100775.31
2022-10-03T15:44:24.000Z,100769.75
2022-10-03T15:47:01.638Z,100764.75
2022-10-03T15:49:36.632Z,100764.13
2022-10-03T15:52:21.250Z,100760.78
2022-10-03T15:55:06.704Z,100756.66
2022-10-03T15:57:45.615Z,100747.13
2022-10-03T16:00:26.141Z,100747.53
2022-10-03T16:03:08.534Z,100754.97
2022-10-03T16:05:37.530Z,100762.44
2022-10-03T16:08:14.609Z,100752.88
2022-10-03T16:11:14.091Z,100752.47
2022-10-03T16:13:49.140Z,100752.03
2022-10-03T16:16:22.386Z,100755.13
2022-10-03T16:18:58.194Z,100761.09
2022-10-03T16:22:07.117Z,100756.97
2022-10-03T16:25:15.972Z,100762.72
2022-10-03T16:28:12.461Z,100755.28
2022-10-03T16:30:52.302Z,100750.28
2022-10-03T16:33:40.435Z,100755.25
2022-10-03T16:36:10.346Z,100747.97
2022-10-03T16:38:52.380Z,100744.22
2022-10-03T16:41:34.980Z,100744.16
2022-10-03T16:44:11.463Z,100746.81
2022-10-03T16:46:43.158Z,100739.53
2022-10-03T16:49:47.859Z,100745.91
2022-10-03T16:52:18.893Z,100746.19
2022-10-03T16:54:47.162Z,100744.50
2022-10-03T16:57:29.337Z,100743.63
2022-10-03T16:59:56.976Z,100739.03
2022-10-03T17:02:29.317Z,100743.09
2022-10-03T17:05:09.685Z,100743.19
2022-10-03T17:08:36.802Z,100733.44
2022-10-03T17:10:58.554Z,100734.59
2022-10-03T17:13:51.977Z,100740.75
2022-10-03T17:16:33.899Z,100745.00
2022-10-03T17:19:26.294Z,100741.03
2022-10-03T17:22:05.373Z,100730.06
2022-10-03T17:24:53.025Z,100736.00
2022-10-03T17:27:32.055Z,100732.03
2022-10-03T17:30:04.070Z,100728.91
2022-10-03T17:32:42.123Z,100727.63
2022-10-03T17:35:15.468Z,100726.34
2022-10-03T17:38:48.483Z,100729.59
2022-10-03T17:41:29.077Z,100713.44
2022-10-03T17:44:18.274Z,100710.47
2022-10-03T17:47:26.202Z,100713.25
2022-10-03T17:50:37.623Z,100709.03
2022-10-03T17:53:04.965Z,100704.41
2022-10-03T17:55:41.493Z,100711.34
2022-10-03T17:58:17.880Z,100704.88
2022-10-03T18:00:44.799Z,100718.00
2022-10-03T18:03:24.014Z,100711.53
2022-10-03T18:05:57.919Z,100709.44
2022-10-03T18:08:36.080Z,100718.03
2022-10-03T18:11:06.791Z,100706.88
2022-10-03T18:13:43.996Z,100708.25
2022-10-03T18:16:19.719Z,100705.09
2022-10-03T18:18:49.404Z,100708.16
2022-10-03T18:21:46.359Z,100710.34
2022-10-03T18:24:31.718Z,100710.72
2022-10-03T18:27:31.983Z,100709.06
2022-10-03T18:30:22.330Z,100703.25
2022-10-03T18:32:51.989Z,100712.09
2022-10-03T18:35:26.646Z,100702.41
2022-10-03T18:38:23.588Z,100699.09
2022-10-03T18:40:59.869Z,100707.13
2022-10-03T18:44:01.891Z,100711.66
2022-10-03T18:46:39.606Z,100706.13
2022-10-03T18:49:33.977Z,100707.78
2022-10-03T18:52:24.166Z,100708.59
2022-10-03T18:55:36.823Z,100703.25
2022-10-03T18:58:29.273Z,100697.88
2022-10-03T19:01:32.454Z,100701.41
2022-10-03T19:04:08.394Z,100698.72
2022-10-03T19:06:44.590Z,100698.72
2022-10-03T19:09:22.796Z,100703.25
2022-10-03T19:12:15.387Z,100697.06
2022-10-03T19:15:21.163Z,100696.22
2022-10-03T19:18:26.148Z,100696.22
2022-10-03T19:21:00.074Z,100698.72
2022-10-03T19:23:36.633Z,100697.06
2022-10-03T19:26:35.535Z,100704.06
2022-10-03T19:29:33.823Z,100698.06
2022-10-03T19:32:27.234Z,100701.59
2022-10-03T19:34:58.788Z,100698.06
2022-10-03T19:37:25.597Z,100702.59
2022-10-03T19:39:52.943Z,100693.94
2022-10-03T19:42:39.113Z,100692.44
2022-10-03T19:45:13.616Z,100690.78
2022-10-03T19:47:57.354Z,100700.84
2022-10-03T19:50:35.394Z,100701.03
2022-10-03T19:53:14.999Z,100691.50
2022-10-03T19:55:44.181Z,100695.22
2022-10-03T19:58:24.339Z,100696.41
2022-10-03T20:01:00.218Z,100702.94
2022-10-03T20:03:45.969Z,100705.00
2022-10-03T20:06:40.474Z,100701.66
2022-10-03T20:09:28.145Z,100696.31
2022-10-03T20:12:04.290Z,100703.69
2022-10-03T20:14:41.707Z,100693.16
2022-10-03T20:17:21.396Z,100695.00
2022-10-03T20:20:12.068Z,100699.72
2022-10-03T20:22:39.135Z,100690.88
2022-10-03T20:25:20.354Z,100688.34
2022-10-03T20:27:53.844Z,100693.06
2022-10-03T20:30:53.173Z,100689.94
2022-10-03T20:33:34.689Z,100679.38
2022-10-03T20:36:23.837Z,100682.06
2022-10-03T20:39:14.723Z,100682.44
2022-10-03T20:42:04.908Z,100670.91
2022-10-03T20:44:55.094Z,100673.75
2022-10-03T20:48:02.311Z,100682.97
2022-10-03T20:50:41.069Z,100675.78
2022-10-03T20:53:17.364Z,100666.28
2022-10-03T20:55:55.582Z,100667.47
2022-10-03T20:58:39.511Z,100664.97
2022-10-03T21:01:15.795Z,100661.66
2022-10-03T21:04:24.582Z,100661.19
2022-10-03T21:07:08.941Z,100653.31
2022-10-03T21:10:19.672Z,100665.19
2022-10-03T21:13:00.406Z,100665.38
2022-10-03T21:15:59.519Z,100671.91
2022-10-03T21:18:40.926Z,100665.91
2022-10-03T21:21:32.989Z,100649.38
2022-10-03T21:24:12.763Z,100665.44
2022-10-03T21:27:09.242Z,100664.16
2022-10-03T21:29:55.295Z,100661.28
2022-10-03T21:32:39.275Z,100663.31
2022-10-03T21:35:27.609Z,100656.47
2022-10-03T21:38:15.787Z,100649.47
2022-10-03T21:40:55.077Z,100653.97
2022-10-03T21:43:43.446Z,100645.50
2022-10-03T21:46:44.763Z,100647.50
2022-10-03T21:49:54.924Z,100646.88
2022-10-03T21:53:09.191Z,100649.06
2022-10-03T21:56:24.709Z,100644.06
2022-10-03T21:59:14.742Z,100640.09
2022-10-03T22:02:13.780Z,100634.09
2022-10-03T22:04:59.199Z,100630.97
2022-10-03T22:07:37.639Z,100632.13
2022-10-03T22:10:21.646Z,100622.44
2022-10-03T22:12:55.351Z,100627.81
2022-10-03T22:16:00.680Z,100620.16
2022-10-03T22:18:41.924Z,100618.47
2022-10-03T22:21:26.073Z,100609.78
2022-10-03T22:25:15.100Z,100614.50
2022-10-03T22:28:12.417Z,100612.84
2022-10-03T22:30:53.698Z,100609.50
2022-10-03T22:33:54.755Z,100599.16
2022-10-03T22:36:22.091Z,100602.69
2022-10-03T22:38:51.453Z,100601.84
2022-10-03T22:41:26.846Z,100605.53
2022-10-03T22:43:55.898Z,100602.03
2022-10-03T22:46:28.654Z,100594.16
2022-10-03T22:49:08.203Z,100595.19
2022-10-03T22:51:35.906Z,100592.50
2022-10-03T22:54:12.863Z,100596.38
2022-10-03T22:56:52.695Z,100581.53
2022-10-03T22:59:28.815Z,100584.38
2022-10-03T23:02:01.755Z,100574.69
2022-10-03T23:05:09.615Z,100581.06
2022-10-03T23:07:54.910Z,100582.06
2022-10-03T23:10:45.152Z,100577.91
2022-10-03T23:13:19.799Z,100586.09
2022-10-03T23:15:54.516Z,100576.59
2022-10-03T23:18:58.777Z,100583.97
2022-10-03T23:21:26.419Z,100580.63
2022-10-03T23:24:27.902Z,100578.34
2022-10-03T23:27:32.890Z,100573.31
2022-10-03T23:30:11.928Z,100570.00
2022-10-03T23:32:47.867Z,100571.84
2022-10-03T23:35:19.576Z,100565.88
2022-10-03T23:37:48.693Z,100566.00
2022-10-03T23:40:47.018Z,100566.38
2022-10-03T23:43:41.663Z,100571.22
2022-10-03T23:46:17.099Z,100567.91
2022-10-03T23:48:53.430Z,100572.81
2022-10-03T23:51:27.179Z,100571.09
2022-10-03T23:54:03.773Z,100564.28
2022-10-03T23:56:44.427Z,100558.50
2022-10-03T23:59:14.309Z,100553.28
